Time;durP1;ratioP1;P1;durP2;ratioP2;P2;SDS_P1;SDS_P2;PMS_P1;PMS_P2;Temp;Humidity;BMP_temperature;BMP_pressure;BME280_temperature;BME280_humidity;BME280_pressure;Samples;Min_cycle;Max_cycle;Signal;HPM_P1;HPM_P2
2023/10/29 00:00:19;;;;;;;5.47;0.70;;;15.50;99.90;;;;;;7398223;19;20030;-75
2023/10/29 00:02:47;;;;;;;1.75;0.70;;;15.60;99.90;;;;;;7377136;19;20026;-75
2023/10/29 00:05:18;;;;;;;3.60;0.77;;;15.50;99.90;;;;;;7379152;19;20011;-75
2023/10/29 00:07:47;;;;;;;5.15;1.10;;;15.50;99.90;;;;;;7378066;19;20234;-75
2023/10/29 00:10:16;;;;;;;2.10;0.60;;;15.50;99.90;;;;;;7377552;19;20007;-75
2023/10/29 00:12:47;;;;;;;4.50;1.00;;;15.50;99.90;;;;;;7377148;19;20117;-74
2023/10/29 00:15:16;;;;;;;2.42;0.70;;;15.60;99.90;;;;;;7396796;19;20010;-74
2023/10/29 00:17:45;;;;;;;4.10;1.00;;;15.60;99.90;;;;;;7375338;19;20370;-75
2023/10/29 00:20:14;;;;;;;1.98;1.10;;;15.80;99.90;;;;;;7375316;19;20019;-75
2023/10/29 00:22:43;;;;;;;3.40;1.17;;;15.60;99.90;;;;;;7377577;19;20009;-75
2023/10/29 00:25:12;;;;;;;6.50;1.25;;;15.70;99.90;;;;;;7377615;19;20017;-75
2023/10/29 00:27:41;;;;;;;1.90;1.15;;;15.70;99.90;;;;;;7377060;19;20094;-75
2023/10/29 00:30:13;;;;;;;2.15;0.95;;;15.50;99.90;;;;;;7405505;19;20011;-75
2023/10/29 00:32:42;;;;;;;6.57;1.40;;;15.60;99.90;;;;;;7384037;19;20075;-75
2023/10/29 00:35:12;;;;;;;2.47;1.40;;;15.60;99.90;;;;;;7383773;19;20002;-76
2023/10/29 00:37:40;;;;;;;6.22;1.60;;;15.70;99.90;;;;;;7384345;19;20027;-75
2023/10/29 00:40:08;;;;;;;1.90;1.30;;;15.70;99.90;;;;;;7385439;19;20003;-75
2023/10/29 00:42:37;;;;;;;3.08;1.48;;;15.70;99.90;;;;;;7383659;19;20022;-75
2023/10/29 00:45:06;;;;;;;7.03;1.75;;;15.80;99.90;;;;;;7408501;19;20011;-75
2023/10/29 00:47:40;;;;;;;5.03;1.30;;;15.80;99.90;;;;;;7382744;19;20019;-75
2023/10/29 00:50:10;;;;;;;9.48;1.60;;;15.90;99.90;;;;;;7383199;19;20007;-75
2023/10/29 00:52:38;;;;;;;4.40;1.30;;;15.80;99.90;;;;;;7383371;19;20098;-76
2023/10/29 00:55:08;;;;;;;6.97;1.67;;;15.70;99.90;;;;;;7384230;19;20378;-74
2023/10/29 00:57:38;;;;;;;5.28;1.35;;;15.80;99.90;;;;;;7384912;19;20002;-75
2023/10/29 01:00:09;;;;;;;8.82;1.63;;;15.60;99.90;;;;;;7404734;19;20034;-76
2023/10/29 01:02:40;;;;;;;8.05;1.48;;;15.80;99.90;;;;;;7407462;19;20006;-75
2023/10/29 01:05:09;;;;;;;;;;;15.80;99.90;;;;;;7406879;19;20244;-75
2023/10/29 01:07:38;;;;;;;5.30;1.40;;;15.80;99.90;;;;;;7406320;19;19915;-75
2023/10/29 01:10:08;;;;;;;9.93;1.60;;;15.80;99.90;;;;;;7406089;19;20028;-75
2023/10/29 01:12:37;;;;;;;8.57;2.00;;;15.70;99.90;;;;;;7406543;19;20066;-74
2023/10/29 01:15:06;;;;;;;7.15;1.58;;;15.70;99.90;;;;;;7406114;19;20006;-75
2023/10/29 01:17:35;;;;;;;8.48;1.73;;;15.40;99.90;;;;;;7404567;19;20011;-75
2023/10/29 01:20:08;;;;;;;9.82;1.80;;;15.60;99.90;;;;;;7404986;19;20020;-75
2023/10/29 01:22:37;;;;;;;5.93;1.80;;;15.20;99.90;;;;;;7405424;19;20007;-75
2023/10/29 01:25:10;;;;;;;9.48;2.03;;;15.50;99.90;;;;;;7406024;19;20010;-75
2023/10/29 01:27:39;;;;;;;10.95;1.65;;;15.50;99.90;;;;;;7405631;19;20238;-75
2023/10/29 01:30:09;;;;;;;7.10;2.10;;;15.60;99.90;;;;;;7408142;19;20024;-75
2023/10/29 01:32:39;;;;;;;14.93;2.05;;;15.60;99.90;;;;;;7405387;19;20016;-75
2023/10/29 01:35:11;;;;;;;7.25;1.65;;;15.60;99.90;;;;;;7404857;19;20664;-74
2023/10/29 01:37:39;;;;;;;6.57;1.13;;;15.60;99.90;;;;;;7405304;19;20026;-74
2023/10/29 01:40:10;;;;;;;9.90;1.88;;;15.50;99.90;;;;;;7402031;19;20011;-74
2023/10/29 01:42:38;;;;;;;6.25;1.63;;;15.40;99.90;;;;;;7405411;19;20100;-74
2023/10/29 01:45:08;;;;;;;8.35;1.58;;;15.30;99.90;;;;;;7404754;19;20024;-75
2023/10/29 01:47:37;;;;;;;13.07;1.83;;;15.50;99.90;;;;;;7409065;19;20007;-75
2023/10/29 01:50:06;;;;;;;10.45;1.60;;;15.40;99.90;;;;;;7404819;19;20097;-74
2023/10/29 01:52:39;;;;;;;9.57;1.50;;;15.40;99.90;;;;;;7404551;19;20284;-74
2023/10/29 01:55:08;;;;;;;9.40;1.30;;;15.50;99.90;;;;;;7404474;19;20362;-74
2023/10/29 01:57:37;;;;;;;11.50;1.30;;;15.60;99.90;;;;;;7405201;19;20031;-74
2023/10/29 02:00:10;;;;;;;13.30;1.85;;;15.80;99.90;;;;;;7402247;19;20006;-74
2023/10/29 02:02:39;;;;;;;11.82;1.88;;;15.50;99.90;;;;;;7380626;19;20003;-74
2023/10/29 02:05:09;;;;;;;11.15;2.20;;;15.30;99.90;;;;;;7381412;19;20073;-75
2023/10/29 02:07:42;;;;;;;14.50;1.90;;;15.40;99.90;;;;;;7381470;19;20341;-75
2023/10/29 02:10:11;;;;;;;15.80;1.77;;;15.40;99.90;;;;;;7381721;19;20020;-75
2023/10/29 02:12:40;;;;;;;15.70;1.75;;;15.50;99.90;;;;;;7381257;19;20028;-75
2023/10/29 02:15:09;;;;;;;13.10;2.10;;;15.60;99.90;;;;;;7402683;19;20015;-75
2023/10/29 02:17:38;;;;;;;13.27;1.75;;;15.50;99.90;;;;;;7379152;19;20014;-75
2023/10/29 02:20:10;;;;;;;13.52;2.13;;;15.40;99.90;;;;;;7379549;19;20014;-74
2023/10/29 02:22:41;;;;;;;12.10;2.38;;;15.30;99.90;;;;;;7382829;19;20006;-74
2023/10/29 02:25:10;;;;;;;9.25;2.00;;;15.30;99.90;;;;;;7379930;19;20075;-74
2023/10/29 02:27:41;;;;;;;10.98;1.60;;;15.50;99.90;;;;;;7380417;19;20023;-75
2023/10/29 02:30:10;;;;;;;10.80;1.85;;;15.40;99.90;;;;;;7400135;19;20353;-75
2023/10/29 02:32:39;;;;;;;14.93;1.98;;;15.60;99.90;;;;;;7379805;19;20077;-75
2023/10/29 02:35:10;;;;;;;11.68;1.95;;;15.70;99.90;;;;;;7379866;19;20062;-75
2023/10/29 02:37:41;;;;;;;23.70;2.55;;;15.90;99.90;;;;;;7380274;19;20006;-75
2023/10/29 02:40:12;;;;;;;9.68;2.00;;;16.00;99.90;;;;;;7379691;19;20066;-75
2023/10/29 02:42:41;;;;;;;12.85;1.80;;;15.60;99.90;;;;;;7384427;19;20050;-75
2023/10/29 02:45:11;;;;;;;22.27;2.63;;;15.60;99.90;;;;;;7401512;19;20054;-75
2023/10/29 02:47:39;;;;;;;13.02;2.00;;;15.70;99.90;;;;;;7378880;19;20045;-74
2023/10/29 02:50:09;;;;;;;11.27;2.03;;;15.60;99.90;;;;;;7379640;19;20006;-75
2023/10/29 02:52:40;;;;;;;19.70;2.10;;;15.60;99.90;;;;;;7379204;19;20025;-74
2023/10/29 02:55:09;;;;;;;9.27;1.35;;;15.70;99.90;;;;;;7380077;19;20306;-75
2023/10/29 02:57:38;;;;;;;12.68;2.33;;;15.80;99.90;;;;;;7379708;19;20003;-75
2023/10/29 03:00:08;;;;;;;21.40;1.70;;;15.60;99.90;;;;;;7400238;19;20017;-75
2023/10/29 03:02:37;;;;;;;20.45;3.08;;;15.80;99.90;;;;;;7379704;19;20009;-75
2023/10/29 03:05:08;;;;;;;14.30;2.33;;;15.80;99.90;;;;;;7380014;19;20019;-75
2023/10/29 03:07:37;;;;;;;23.38;2.33;;;15.80;99.90;;;;;;7380379;19;20288;-75
2023/10/29 03:10:09;;;;;;;20.95;2.33;;;15.80;99.90;;;;;;7380074;19;20021;-74
2023/10/29 03:12:38;;;;;;;25.80;2.38;;;15.70;99.90;;;;;;7381612;19;20372;-75
2023/10/29 03:15:08;;;;;;;21.73;2.83;;;15.40;99.80;;;;;;7400688;19;20024;-76
2023/10/29 03:17:37;;;;;;;17.77;2.55;;;15.40;99.60;;;;;;7377527;19;20007;-75
2023/10/29 03:20:06;;;;;;;21.25;2.63;;;15.40;99.40;;;;;;7378980;19;20015;-75
2023/10/29 03:22:35;;;;;;;18.85;2.80;;;15.50;99.60;;;;;;7379963;19;20080;-75
2023/10/29 03:25:04;;;;;;;22.42;2.63;;;15.40;99.40;;;;;;7381350;19;20107;-75
2023/10/29 03:27:36;;;;;;;13.30;2.22;;;15.50;99.00;;;;;;7381451;19;20003;-75
2023/10/29 03:30:04;;;;;;;30.30;2.75;;;15.50;99.20;;;;;;7404852;19;20011;-75
2023/10/29 03:32:33;;;;;;;21.33;2.95;;;15.50;98.70;;;;;;7377663;19;20068;-75
2023/10/29 03:35:02;;;;;;;18.63;2.70;;;15.50;98.60;;;;;;7378098;19;20007;-75
2023/10/29 03:37:31;;;;;;;19.02;2.47;;;15.60;98.60;;;;;;7377715;19;20015;-75
2023/10/29 03:40:01;;;;;;;30.52;3.20;;;15.30;99.00;;;;;;7378455;19;20002;-75
2023/10/29 03:42:30;;;;;;;24.15;3.08;;;15.50;98.90;;;;;;7378319;19;20010;-75
2023/10/29 03:45:01;;;;;;;20.30;2.75;;;15.50;98.70;;;;;;7402460;19;20240;-75
2023/10/29 03:47:30;;;;;;;23.27;3.55;;;15.60;98.70;;;;;;7378097;19;20023;-74
2023/10/29 03:49:58;;;;;;;13.15;2.55;;;15.60;98.60;;;;;;7378294;19;20010;-75
2023/10/29 03:52:27;;;;;;;28.23;2.90;;;15.70;98.60;;;;;;7376870;19;20010;-75
2023/10/29 03:54:56;;;;;;;24.80;2.97;;;15.70;98.50;;;;;;7377867;19;20003;-75
2023/10/29 03:57:24;;;;;;;22.55;3.00;;;15.60;98.40;;;;;;7381971;19;20376;-75
2023/10/29 03:59:53;;;;;;;34.40;3.78;;;15.70;98.40;;;;;;7399388;19;20027;-75
2023/10/29 04:02:24;;;;;;;24.45;3.05;;;15.60;98.90;;;;;;7377961;19;20006;-75
2023/10/29 04:04:53;;;;;;;20.05;3.15;;;15.60;98.60;;;;;;7384628;19;20003;-75
2023/10/29 04:07:22;;;;;;;22.83;2.85;;;15.60;98.50;;;;;;7385471;19;20020;-75
2023/10/29 04:09:50;;;;;;;26.33;3.22;;;15.60;98.40;;;;;;7385390;19;20069;-75
2023/10/29 04:12:19;;;;;;;26.55;3.05;;;15.50;98.30;;;;;;7406933;19;20015;-74
2023/10/29 04:14:48;;;;;;;23.17;2.63;;;15.50;98.60;;;;;;7384241;19;20297;-74
2023/10/29 04:17:16;;;;;;;20.30;2.58;;;15.40;98.50;;;;;;7382965;19;20010;-75
2023/10/29 04:19:48;;;;;;;21.40;3.53;;;15.50;98.50;;;;;;7387238;19;20365;-75
2023/10/29 04:22:17;;;;;;;32.10;3.42;;;15.60;98.50;;;;;;7382707;19;20331;-75
2023/10/29 04:24:46;;;;;;;18.10;2.78;;;15.40;98.80;;;;;;7384494;19;20044;-75
2023/10/29 04:27:14;;;;;;;34.65;3.70;;;15.40;98.70;;;;;;7406312;19;20106;-75
2023/10/29 04:29:43;;;;;;;32.53;3.35;;;15.50;98.70;;;;;;7384608;19;20314;-75
2023/10/29 04:32:12;;;;;;;39.33;3.95;;;15.50;98.70;;;;;;7383658;19;20011;-75
2023/10/29 04:34:40;;;;;;;32.33;3.60;;;15.50;98.70;;;;;;7384306;19;20024;-74
2023/10/29 04:37:12;;;;;;;29.77;2.83;;;15.50;98.70;;;;;;7384449;19;20028;-75
2023/10/29 04:39:42;;;;;;;18.33;2.78;;;15.20;99.00;;;;;;7384076;19;20011;-75
2023/10/29 04:42:11;;;;;;;21.92;2.92;;;15.40;99.00;;;;;;7403268;19;20005;-75
2023/10/29 04:44:39;;;;;;;29.80;3.28;;;15.40;98.90;;;;;;7383170;19;20007;-75
2023/10/29 04:47:08;;;;;;;20.02;2.72;;;15.50;98.80;;;;;;7383561;19;20032;-75
2023/10/29 04:49:37;;;;;;;20.33;3.05;;;15.40;98.70;;;;;;7383472;19;20590;-75
2023/10/29 04:52:06;;;;;;;36.60;3.72;;;15.40;98.70;;;;;;7382987;19;20024;-74
2023/10/29 04:54:37;;;;;;;39.75;4.38;;;15.40;98.70;;;;;;7385985;19;20016;-75
2023/10/29 04:57:07;;;;;;;;;;;15.40;98.70;;;;;;7402786;19;20394;-75
2023/10/29 04:59:37;;;;;;;27.08;3.10;;;15.50;98.70;;;;;;7382682;19;19925;-75
2023/10/29 05:02:05;;;;;;;24.92;3.15;;;15.50;98.60;;;;;;7382492;19;20700;-75
2023/10/29 05:04:34;;;;;;;21.73;2.70;;;15.50;98.70;;;;;;7383092;19;20011;-75
2023/10/29 05:07:03;;;;;;;24.52;3.33;;;15.50;98.70;;;;;;7383638;19;20058;-75
2023/10/29 05:09:31;;;;;;;22.10;3.28;;;15.50;98.70;;;;;;7383658;19;20056;-75
2023/10/29 05:12:03;;;;;;;18.05;3.15;;;15.50;98.70;;;;;;7408694;19;20378;-75
2023/10/29 05:14:31;;;;;;;19.58;2.75;;;15.50;98.80;;;;;;7390161;19;20017;-75
2023/10/29 05:17:01;;;;;;;17.55;2.90;;;15.50;99.20;;;;;;7387702;19;20024;-75
2023/10/29 05:19:29;;;;;;;16.40;2.67;;;15.40;98.90;;;;;;7389547;19;20007;-75
2023/10/29 05:21:58;;;;;;;24.75;3.45;;;15.40;98.80;;;;;;7388687;19;20490;-75
2023/10/29 05:24:27;;;;;;;26.15;3.05;;;15.40;98.80;;;;;;7386900;19;20014;-74
2023/10/29 05:26:55;;;;;;;24.75;2.88;;;15.30;98.90;;;;;;7404413;19;20006;-74
2023/10/29 05:29:27;;;;;;;19.90;2.58;;;15.30;98.70;;;;;;7382007;19;20007;-75
2023/10/29 05:31:55;;;;;;;19.92;2.55;;;15.30;98.80;;;;;;7382335;19;20052;-74
2023/10/29 05:34:24;;;;;;;23.55;3.30;;;15.30;98.90;;;;;;7382006;19;20398;-74
2023/10/29 05:36:53;;;;;;;22.88;3.53;;;15.20;98.90;;;;;;7381528;19;20069;-75
2023/10/29 05:39:21;;;;;;;27.52;3.20;;;15.20;99.00;;;;;;7404297;19;20027;-74
2023/10/29 05:41:50;;;;;;;31.58;3.63;;;15.30;99.10;;;;;;7380588;19;20378;-75
2023/10/29 05:44:19;;;;;;;18.80;2.92;;;15.20;99.10;;;;;;7381751;19;20070;-74
2023/10/29 05:46:50;;;;;;;28.60;2.70;;;15.20;99.10;;;;;;7381963;19;20003;-75
2023/10/29 05:49:18;;;;;;;;;;;15.20;99.10;;;;;;7387110;19;20416;-74
2023/10/29 05:51:49;;;;;;;20.02;2.80;;;15.20;99.10;;;;;;7382253;19;19928;-74
2023/10/29 05:54:18;;;;;;;28.95;3.00;;;15.20;99.00;;;;;;7403532;19;20021;-75
2023/10/29 05:56:47;;;;;;;19.35;2.75;;;15.10;99.00;;;;;;7382026;19;20015;-75
2023/10/29 05:59:16;;;;;;;24.98;3.33;;;15.10;99.10;;;;;;7381293;19;20003;-75
2023/10/29 06:01:45;;;;;;;27.63;2.85;;;15.10;99.10;;;;;;7381506;19;20007;-75
2023/10/29 06:04:16;;;;;;;22.20;2.80;;;15.10;99.30;;;;;;7381767;19;20024;-75
2023/10/29 06:06:44;;;;;;;26.25;3.20;;;15.10;99.60;;;;;;7381624;19;20000;-74
2023/10/29 06:09:13;;;;;;;25.50;3.35;;;15.10;99.20;;;;;;7402902;19;20022;-75
2023/10/29 06:11:43;;;;;;;25.27;3.10;;;15.10;99.20;;;;;;7384233;19;19999;-76
2023/10/29 06:14:12;;;;;;;22.05;3.42;;;15.10;99.70;;;;;;7380977;19;20684;-75
2023/10/29 06:16:41;;;;;;;30.27;3.13;;;15.00;99.50;;;;;;7380204;19;20236;-75
2023/10/29 06:19:09;;;;;;;30.17;3.05;;;15.00;99.90;;;;;;7380088;19;20014;-75
2023/10/29 06:21:41;;;;;;;32.97;3.70;;;15.10;99.70;;;;;;7380134;19;20027;-75
2023/10/29 06:24:10;;;;;;;15.45;3.13;;;15.00;99.80;;;;;;7402564;19;20089;-75
2023/10/29 06:26:39;;;;;;;33.78;3.95;;;15.10;99.90;;;;;;7378573;19;20410;-75
2023/10/29 06:29:08;;;;;;;23.02;3.20;;;15.10;99.90;;;;;;7379978;19;20058;-75
2023/10/29 06:31:37;;;;;;;25.85;2.72;;;15.10;99.90;;;;;;7380683;19;20007;-74
2023/10/29 06:34:06;;;;;;;33.47;2.95;;;15.00;99.90;;;;;;7380271;19;20381;-75
2023/10/29 06:36:35;;;;;;;25.67;3.38;;;15.10;99.90;;;;;;7382516;19;20019;-76
2023/10/29 06:39:06;;;;;;;23.08;3.13;;;15.00;99.90;;;;;;7401362;19;20027;-75
2023/10/29 06:41:35;;;;;;;16.70;3.00;;;15.10;99.90;;;;;;7378488;19;20003;-75
2023/10/29 06:44:04;;;;;;;29.30;3.10;;;15.10;99.90;;;;;;7380505;19;20007;-75
2023/10/29 06:46:33;;;;;;;20.58;2.95;;;15.10;99.90;;;;;;7380047;19;20007;-75
2023/10/29 06:49:02;;;;;;;17.65;2.40;;;15.10;99.90;;;;;;7379845;19;19999;-75
2023/10/29 06:51:30;;;;;;;26.38;3.60;;;15.10;99.90;;;;;;7379677;19;19999;-75
2023/10/29 06:53:59;;;;;;;19.00;3.05;;;15.20;99.90;;;;;;7405536;19;20007;-75
2023/10/29 06:56:30;;;;;;;15.90;2.58;;;15.20;99.90;;;;;;7378399;19;20003;-74
2023/10/29 06:58:59;;;;;;;24.80;3.50;;;15.20;99.90;;;;;;7378788;19;20337;-75
2023/10/29 07:01:28;;;;;;;19.75;2.90;;;15.30;99.90;;;;;;7378637;19;20390;-75
2023/10/29 07:03:57;;;;;;;26.88;3.30;;;15.30;99.90;;;;;;7379464;19;20066;-75
2023/10/29 07:06:25;;;;;;;17.98;2.85;;;15.40;99.90;;;;;;7379074;19;20038;-75
2023/10/29 07:08:54;;;;;;;15.55;2.95;;;15.40;99.90;;;;;;7400130;19;20286;-74
2023/10/29 07:11:23;;;;;;;25.33;2.85;;;15.50;99.90;;;;;;7378637;19;20020;-74
2023/10/29 07:13:55;;;;;;;22.48;3.05;;;15.50;99.90;;;;;;7378530;19;20006;-75
2023/10/29 07:16:23;;;;;;;17.83;2.78;;;15.60;99.90;;;;;;7378277;19;20017;-74
2023/10/29 07:18:52;;;;;;;34.38;5.63;;;15.60;99.90;;;;;;7378803;19;20019;-74
2023/10/29 07:21:21;;;;;;;18.33;3.53;;;15.70;99.90;;;;;;7400317;19;20011;-75
2023/10/29 07:23:49;;;;;;;21.90;2.88;;;15.70;99.90;;;;;;7378759;19;20284;-74
2023/10/29 07:26:18;;;;;;;27.63;5.80;;;15.70;99.90;;;;;;7378914;19;20007;-75
2023/10/29 07:28:47;;;;;;;19.33;2.90;;;15.70;99.90;;;;;;7378509;19;20006;-75
2023/10/29 07:31:18;;;;;;;19.30;3.17;;;15.80;99.90;;;;;;7378667;19;20011;-75
2023/10/29 07:33:47;;;;;;;19.90;3.08;;;15.80;99.90;;;;;;7382095;19;20019;-75
2023/10/29 07:36:17;;;;;;;19.67;2.80;;;15.90;99.90;;;;;;7402268;19;20027;-76
2023/10/29 07:38:46;;;;;;;16.35;3.03;;;15.90;99.90;;;;;;7382883;19;20024;-75
2023/10/29 07:41:19;;;;;;;20.13;2.58;;;15.90;99.90;;;;;;7387101;19;20007;-75
2023/10/29 07:43:48;;;;;;;19.60;3.10;;;15.90;99.90;;;;;;7389080;19;20010;-75
2023/10/29 07:46:20;;;;;;;18.67;3.17;;;15.90;99.90;;;;;;7388385;19;20010;-76
2023/10/29 07:48:48;;;;;;;18.98;2.88;;;15.90;99.90;;;;;;7388119;19;20023;-74
2023/10/29 07:51:17;;;;;;;20.60;3.53;;;16.00;99.90;;;;;;7409845;19;20063;-74
2023/10/29 07:53:46;;;;;;;11.15;2.60;;;16.00;99.90;;;;;;7386994;19;20011;-75
2023/10/29 07:56:16;;;;;;;20.27;2.95;;;16.00;99.90;;;;;;7387426;19;20066;-75
2023/10/29 07:58:46;;;;;;;16.70;2.80;;;16.10;99.90;;;;;;7387477;19;20007;-75
2023/10/29 08:01:15;;;;;;;17.92;2.10;;;15.90;99.90;;;;;;7385325;19;20011;-74
2023/10/29 08:03:50;;;;;;;13.93;2.45;;;15.90;99.90;;;;;;7389041;19;20441;-74
2023/10/29 08:06:18;;;;;;;18.52;2.63;;;15.90;99.90;;;;;;7409275;19;20031;-75
2023/10/29 08:08:47;;;;;;;11.32;2.40;;;16.00;99.90;;;;;;7386536;19;20232;-74
2023/10/29 08:11:23;;;;;;;7.57;2.33;;;16.10;99.90;;;;;;7386890;19;20382;-75
2023/10/29 08:13:51;;;;;;;13.63;2.28;;;16.00;99.90;;;;;;7387121;19;20023;-74
2023/10/29 08:16:21;;;;;;;10.75;2.20;;;16.10;99.90;;;;;;7387041;19;20003;-75
2023/10/29 08:18:53;;;;;;;14.13;2.03;;;16.10;99.90;;;;;;7389201;19;20007;-75
2023/10/29 08:21:22;;;;;;;10.18;2.28;;;16.10;99.90;;;;;;7408470;19;20014;-74
2023/10/29 08:23:51;;;;;;;6.85;2.10;;;16.00;99.90;;;;;;7386483;19;20026;-75
2023/10/29 08:26:19;;;;;;;4.53;1.38;;;16.10;99.90;;;;;;7386191;19;20078;-75
2023/10/29 08:28:48;;;;;;;13.77;2.08;;;16.10;99.90;;;;;;7386581;19;20003;-74
2023/10/29 08:31:17;;;;;;;11.95;2.22;;;16.10;99.90;;;;;;7386314;19;20401;-74
2023/10/29 08:33:45;;;;;;;12.75;2.33;;;16.10;99.90;;;;;;7386703;19;20021;-75
2023/10/29 08:36:18;;;;;;;13.32;2.22;;;16.00;99.90;;;;;;7412511;19;20093;-74
2023/10/29 08:38:47;;;;;;;8.02;1.98;;;15.90;99.90;;;;;;7386050;19;20280;-74
2023/10/29 08:41:16;;;;;;;9.32;2.05;;;15.90;99.90;;;;;;7386376;19;20124;-74
2023/10/29 08:43:45;;;;;;;19.23;2.42;;;15.80;99.90;;;;;;7384993;19;20003;-74
2023/10/29 08:46:14;;;;;;;9.85;2.53;;;15.90;99.90;;;;;;7386029;19;20300;-75
2023/10/29 08:48:42;;;;;;;11.38;3.05;;;15.90;99.90;;;;;;7385678;19;20007;-75
2023/10/29 08:51:14;;;;;;;10.18;2.60;;;15.90;99.90;;;;;;7407368;19;20129;-75
2023/10/29 08:53:45;;;;;;;10.35;1.67;;;15.90;99.90;;;;;;7385244;19;20016;-74
2023/10/29 08:56:14;;;;;;;4.63;1.67;;;16.00;99.90;;;;;;7389516;19;20007;-75
2023/10/29 08:58:43;;;;;;;10.05;1.52;;;15.90;99.90;;;;;;7386251;19;20024;-75
2023/10/29 09:01:12;;;;;;;8.50;1.80;;;16.00;99.90;;;;;;7385317;19;20411;-74
2023/10/29 09:03:41;;;;;;;10.20;1.80;;;16.00;99.90;;;;;;7383610;19;20082;-75
2023/10/29 09:06:12;;;;;;;7.90;1.65;;;16.00;99.90;;;;;;7406883;19;20015;-75
2023/10/29 09:08:41;;;;;;;8.68;1.73;;;16.00;99.90;;;;;;7385644;19;20007;-76
2023/10/29 09:11:18;;;;;;;6.32;1.50;;;15.90;99.90;;;;;;7385759;19;20002;-76
2023/10/29 09:13:48;;;;;;;5.70;1.60;;;15.80;99.90;;;;;;7384765;19;20332;-75
2023/10/29 09:16:16;;;;;;;27.08;13.48;;;15.90;99.90;;;;;;7384537;19;20414;-75
2023/10/29 09:18:45;;;;;;;14.50;6.45;;;15.90;99.90;;;;;;7385631;19;20018;-76
2023/10/29 09:21:14;;;;;;;48.88;24.00;;;15.90;99.90;;;;;;7405929;19;20006;-78
2023/10/29 09:23:59;;;;;;;18.30;8.48;;;15.90;99.90;;;;;;7385414;19;20010;-79
2023/10/29 09:26:31;;;;;;;6.68;3.13;;;16.00;99.90;;;;;;7394141;19;20035;-79
2023/10/29 09:29:36;;;;;;;;;;;;;;;;;;;;;
2023/10/29 09:32:26;;;;;;;5.35;2.45;;;16.00;99.90;;;;;;7402026;19;20007;-78
2023/10/29 09:34:55;;;;;;;10.32;3.17;;;15.80;99.90;;;;;;7402406;19;20003;-78
2023/10/29 09:37:24;;;;;;;5.07;2.50;;;15.90;99.90;;;;;;7389406;19;20391;-78
2023/10/29 09:39:53;;;;;;;10.50;2.25;;;15.90;99.90;;;;;;7387279;19;20003;-78
2023/10/29 09:42:32;;;;;;;7.88;2.70;;;16.10;99.90;;;;;;7406891;19;20020;-81
2023/10/29 09:45:03;;;;;;;7.78;1.67;;;16.10;99.90;;;;;;7390981;19;20007;-79
2023/10/29 09:47:36;;;;;;;;;;;16.00;99.90;;;;;;7387439;19;20384;-80
2023/10/29 09:50:06;;;;;;;9.23;2.28;;;16.10;99.90;;;;;;7387472;19;19946;-80
2023/10/29 09:52:36;;;;;;;6.25;1.63;;;15.90;99.90;;;;;;7386033;19;20010;-79
2023/10/29 09:55:07;;;;;;;11.15;2.13;;;15.90;99.90;;;;;;7384766;19;20007;-77
2023/10/29 09:57:39;;;;;;;8.10;1.60;;;16.00;99.90;;;;;;7383593;19;20332;-77
2023/10/29 10:00:10;;;;;;;4.05;1.40;;;16.00;99.90;;;;;;7407331;19;20018;-78
2023/10/29 10:02:52;;;;;;;3.10;1.30;;;15.90;99.90;;;;;;7381774;19;20062;-76
2023/10/29 10:05:22;;;;;;;13.25;1.88;;;15.90;99.90;;;;;;7382883;19;20007;-77
2023/10/29 10:07:52;;;;;;;5.05;1.65;;;15.90;99.90;;;;;;7383074;19;20023;-77
2023/10/29 10:10:22;;;;;;;12.25;1.73;;;15.70;99.90;;;;;;7383399;19;20247;-78
2023/10/29 10:12:54;;;;;;;3.88;1.08;;;15.70;99.90;;;;;;7381697;19;20030;-77
2023/10/29 10:15:23;;;;;;;9.63;1.38;;;15.80;99.90;;;;;;7404647;19;20027;-77
2023/10/29 10:18:00;;;;;;;7.15;1.50;;;15.70;99.90;;;;;;7384523;19;20002;-76
2023/10/29 10:20:30;;;;;;;4.95;1.67;;;15.90;99.90;;;;;;7382410;19;20007;-77
2023/10/29 10:22:59;;;;;;;6.60;1.63;;;16.10;99.90;;;;;;7380771;19;20007;-76
2023/10/29 10:25:30;;;;;;;6.55;1.25;;;16.10;99.90;;;;;;7380244;19;19999;-78
2023/10/29 10:28:06;;;;;;;12.00;1.20;;;15.90;99.90;;;;;;7381994;19;20054;-79
2023/10/29 10:30:37;;;;;;;6.00;1.48;;;15.60;99.90;;;;;;7383985;19;20011;-79
2023/10/29 10:33:14;;;;;;;4.50;1.65;;;15.60;99.90;;;;;;7405866;19;20016;-78
2023/10/29 10:35:47;;;;;;;5.80;0.85;;;15.90;99.90;;;;;;7383492;19;20062;-79
2023/10/29 10:38:19;;;;;;;7.20;1.05;;;15.90;99.90;;;;;;7381210;19;20006;-78
2023/10/29 10:40:49;;;;;;;192.40;97.63;;;16.00;99.90;;;;;;7379735;19;20063;-77
2023/10/29 10:43:24;;;;;;;24.65;10.57;;;15.90;99.90;;;;;;7380473;19;20003;-79
2023/10/29 10:46:36;;;;;;;5.97;3.42;;;16.10;99.90;;;;;;7383305;19;19999;-82
2023/10/29 10:49:14;;;;;;;10.00;4.43;;;16.10;99.90;;;;;;7403369;19;20015;-78
2023/10/29 10:55:26;;;;;;;3.78;2.05;;;16.20;99.90;;;;;;7379128;19;20010;-80
2023/10/29 10:57:57;;;;;;;8.68;1.95;;;16.40;99.90;;;;;;7376966;19;20053;-78
2023/10/29 11:03:40;;;;;;;2.97;1.30;;;16.20;99.90;;;;;;7384621;19;19978;-76
2023/10/29 11:06:12;;;;;;;;;;;16.20;99.80;;;;;;7401210;19;20255;-79
2023/10/29 11:08:44;;;;;;;4.63;1.40;;;16.10;99.90;;;;;;7382189;19;19949;-80
2023/10/29 11:11:31;;;;;;;6.20;1.35;;;16.20;99.90;;;;;;7382143;19;20019;-79
2023/10/29 11:14:17;;;;;;;9.38;1.30;;;16.10;99.90;;;;;;7380127;19;20288;-79
2023/10/29 11:16:59;;;;;;;3.05;1.10;;;16.10;99.70;;;;;;7381128;19;20256;-83
2023/10/29 11:19:47;;;;;;;7.78;1.58;;;16.00;99.40;;;;;;7377838;19;20085;-74
2023/10/29 11:22:21;;;;;;;4.18;1.10;;;16.20;99.60;;;;;;7375911;19;20078;-75
2023/10/29 11:25:20;;;;;;;8.98;1.02;;;16.30;99.90;;;;;;7376968;19;20023;-78
2023/10/29 11:27:49;;;;;;;5.25;1.10;;;16.40;99.20;;;;;;7380735;19;20090;-77
2023/10/29 11:30:20;;;;;;;5.28;2.10;;;16.60;98.90;;;;;;7399511;19;20395;-76
2023/10/29 11:33:09;;;;;;;;;;;16.70;97.80;;;;;;7384417;19;20160;-79
2023/10/29 11:35:42;;;;;;;8.32;1.67;;;16.60;98.30;;;;;;7391178;19;20271;-80
2023/10/29 11:38:45;;;;;;;8.43;2.55;;;16.70;98.30;;;;;;7384686;19;20357;-80
2023/10/29 11:41:36;;;;;;;8.70;2.63;;;16.70;97.70;;;;;;7382122;19;20093;-79
2023/10/29 11:44:27;;;;;;;7.88;2.22;;;16.70;97.60;;;;;;7379496;19;20249;-78
2023/10/29 11:47:07;;;;;;;6.28;1.35;;;16.70;97.40;;;;;;7379368;19;20010;-75
2023/10/29 11:50:05;;;;;;;5.72;1.27;;;16.80;97.10;;;;;;7379232;19;20010;-76
2023/10/29 11:52:46;;;;;;;4.63;1.33;;;16.80;96.90;;;;;;7377576;19;20011;-77
2023/10/29 11:55:15;;;;;;;5.65;1.10;;;16.50;96.60;;;;;;7376126;19;20026;-76
2023/10/29 11:57:51;;;;;;;5.57;1.23;;;16.60;96.30;;;;;;7377596;19;20028;-75
2023/10/29 12:00:24;;;;;;;9.02;1.38;;;16.60;96.00;;;;;;7402965;19;20078;-77
2023/10/29 12:02:53;;;;;;;5.25;0.90;;;16.70;95.50;;;;;;7378886;19;20263;-79
2023/10/29 12:05:24;;;;;;;4.55;1.15;;;16.70;94.50;;;;;;7381351;19;20003;-76
2023/10/29 12:08:06;;;;;;;8.48;1.58;;;16.50;95.20;;;;;;7376890;19;20107;-77
2023/10/29 12:10:34;;;;;;;15.48;1.50;;;16.70;95.10;;;;;;7376345;19;20010;-75
2023/10/29 12:13:03;;;;;;;6.93;1.17;;;16.80;95.40;;;;;;7375990;19;20386;-75
2023/10/29 12:15:32;;;;;;;6.20;1.70;;;16.90;95.60;;;;;;7377026;19;20006;-75
2023/10/29 12:18:01;;;;;;;6.80;1.30;;;17.00;95.30;;;;;;7397986;19;20010;-74
2023/10/29 12:20:30;;;;;;;11.18;1.77;;;16.90;94.60;;;;;;7375898;19;20074;-74
2023/10/29 12:23:02;;;;;;;9.20;1.60;;;17.10;94.30;;;;;;7375718;19;20016;-74
2023/10/29 12:25:35;;;;;;;5.65;1.50;;;17.20;94.10;;;;;;7381631;19;20013;-75
2023/10/29 12:28:04;;;;;;;7.32;1.52;;;17.10;93.70;;;;;;7383529;19;20002;-74
2023/10/29 12:30:43;;;;;;;13.77;1.98;;;17.20;93.80;;;;;;7383430;19;20010;-75
2023/10/29 12:33:22;;;;;;;10.38;1.30;;;17.30;93.30;;;;;;7406965;19;20015;-75
2023/10/29 12:35:52;;;;;;;10.43;1.80;;;17.30;92.50;;;;;;7384242;19;20027;-73
2023/10/29 12:38:21;;;;;;;13.05;1.42;;;17.40;92.70;;;;;;7386135;19;20049;-75
2023/10/29 12:41:13;;;;;;;14.20;7.20;;;17.30;92.20;;;;;;7383439;19;20064;-77
2023/10/29 12:43:43;;;;;;;7.72;1.42;;;17.40;92.70;;;;;;7383306;19;20401;-75
2023/10/29 12:46:13;;;;;;;8.57;1.67;;;17.20;91.00;;;;;;7385195;19;20003;-77
2023/10/29 12:51:52;;;;;;;10.43;2.47;;;17.20;91.20;;;;;;7381723;19;20066;-77
2023/10/29 12:54:25;;;;;;;18.13;5.47;;;17.30;92.00;;;;;;7405430;19;20030;-76
2023/10/29 12:56:58;;;;;;;15.35;5.03;;;17.40;92.00;;;;;;7383911;19;20030;-75
2023/10/29 12:59:28;;;;;;;9.55;1.92;;;17.40;91.90;;;;;;7384150;19;20011;-77
2023/10/29 13:01:58;;;;;;;12.23;5.82;;;17.20;91.50;;;;;;7383922;19;20422;-74
2023/10/29 13:04:28;;;;;;;10.00;1.63;;;17.40;91.70;;;;;;7383010;19;20377;-76
2023/10/29 13:07:07;;;;;;;10.80;2.15;;;17.30;91.00;;;;;;7389483;19;20255;-77
2023/10/29 13:09:38;;;;;;;8.25;1.70;;;17.10;91.10;;;;;;7383129;19;20003;-78
2023/10/29 13:12:13;;;;;;;12.23;3.28;;;17.00;91.70;;;;;;7407732;19;20017;-78